createdAt,value
2018-02-16T00:00:57.091Z,46.35
2018-02-16T00:03:26.100Z,43.72
2018-02-16T00:05:56.016Z,39.90
2018-02-16T00:08:25.023Z,41.17
2018-02-16T00:10:54.039Z,43.67
2018-02-16T00:13:23.065Z,36.67
2018-02-16T00:15:52.086Z,39.72
2018-02-16T00:18:21.190Z,38.28
2018-02-16T00:20:50.204Z,38.28
2018-02-16T00:23:19.271Z,41.37
2018-02-16T00:25:48.286Z,41.20
2018-02-16T00:28:17.298Z,42.53
2018-02-16T00:30:46.354Z,43.35
2018-02-16T00:33:15.400Z,36.30
2018-02-16T00:35:45.178Z,44.92
2018-02-16T00:38:14.190Z,38.03
2018-02-16T00:40:43.202Z,35.70
2018-02-16T00:43:12.220Z,37.03
2018-02-16T00:45:41.269Z,45.12
2018-02-16T00:48:10.285Z,40.95
2018-02-16T00:50:39.342Z,40.28
2018-02-16T00:53:08.354Z,44.70
2018-02-16T00:55:37.431Z,42.25
2018-02-16T00:58:06.448Z,41.37
2018-02-16T01:00:35.492Z,44.58
2018-02-16T01:03:04.507Z,44.45
2018-02-16T01:05:34.339Z,42.53
2018-02-16T01:08:04.111Z,41.25
2018-02-16T01:10:33.171Z,46.30
2018-02-16T01:13:03.002Z,45.53
2018-02-16T01:15:32.779Z,41.37
2018-02-16T01:18:01.823Z,41.60
2018-02-16T01:20:30.835Z,42.47
2018-02-16T01:22:59.910Z,46.47
2018-02-16T01:25:28.920Z,46.28
2018-02-16T01:27:57.922Z,46.70
2018-02-16T01:30:26.934Z,47.30
2018-02-16T01:32:55.962Z,47.75
2018-02-16T01:35:25.047Z,46.20
2018-02-16T01:37:54.058Z,50.70
2018-02-16T01:40:23.103Z,44.67
2018-02-16T01:42:52.120Z,48.35
2018-02-16T01:45:21.894Z,48.10
2018-02-16T01:47:50.934Z,48.92
2018-02-16T01:50:19.947Z,47.97
2018-02-16T01:52:48.978Z,53.28
2018-02-16T01:55:18.784Z,48.65
2018-02-16T01:57:47.799Z,53.95
2018-02-16T02:00:16.830Z,49.25
2018-02-16T02:02:45.851Z,58.72
2018-02-16T02:05:14.927Z,51.65
2018-02-16T02:07:43.943Z,57.38
2018-02-16T02:10:12.943Z,58.80
2018-02-16T02:12:41.951Z,62.67
2018-02-16T02:15:10.975Z,61.33
2018-02-16T02:17:40.774Z,61.75
2018-02-16T02:20:09.784Z,62.50
2018-02-16T02:22:38.810Z,58.97
2018-02-16T02:25:08.583Z,65.82
2018-02-16T02:27:37.651Z,60.60
2018-02-16T02:30:07.431Z,62.47
2018-02-16T02:32:37.235Z,64.82
2018-02-16T02:35:06.261Z,58.30
2018-02-16T02:37:35.323Z,58.47
2018-02-16T02:40:05.125Z,59.10
2018-02-16T02:42:34.151Z,63.10
2018-02-16T02:45:03.949Z,58.55
2018-02-16T02:47:33.027Z,66.07
2018-02-16T02:50:02.039Z,52.72
2018-02-16T02:52:31.051Z,60.67
2018-02-16T02:55:00.108Z,56.75
2018-02-16T02:57:29.126Z,55.60
2018-02-16T02:59:58.133Z,63.05
2018-02-16T03:02:27.932Z,65.50
2018-02-16T03:04:56.955Z,59.47
2018-02-16T03:07:26.030Z,58.60
2018-02-16T03:09:55.038Z,67.72
2018-02-16T03:12:24.083Z,56.28
2018-02-16T03:14:53.087Z,59.20
2018-02-16T03:17:22.127Z,60.72
2018-02-16T03:19:51.915Z,59.13
2018-02-16T03:22:20.953Z,52.80
2018-02-16T03:24:50.730Z,69.80
2018-02-16T03:27:19.822Z,68.32
2018-02-16T03:29:48.855Z,69.60
2018-02-16T03:32:17.903Z,62.15
2018-02-16T03:34:47.700Z,54.08
2018-02-16T03:37:16.734Z,57.05
2018-02-16T03:39:46.511Z,59.58
2018-02-16T03:42:15.571Z,60.38
2018-02-16T03:44:45.350Z,49.97
2018-02-16T03:47:14.454Z,60.17
2018-02-16T03:49:43.579Z,66.45
2018-02-16T03:52:12.629Z,66.10
2018-02-16T03:54:41.678Z,61.08
2018-02-16T03:57:10.722Z,70.15
2018-02-16T03:59:39.741Z,60.70
2018-02-16T04:02:08.782Z,68.18
2018-02-16T04:04:37.794Z,61.58
2018-02-16T04:07:06.862Z,71.57
2018-02-16T04:09:35.870Z,62.90
2018-02-16T04:12:04.938Z,67.87
2018-02-16T04:14:34.022Z,66.55
2018-02-16T04:17:03.806Z,66.53
2018-02-16T04:19:32.854Z,72.03
2018-02-16T04:22:02.622Z,81.63
2018-02-16T04:24:31.637Z,71.80
2018-02-16T04:27:00.642Z,70.40
2018-02-16T04:29:29.706Z,67.60
2018-02-16T04:31:59.478Z,77.15
2018-02-16T04:34:28.546Z,62.97
2018-02-16T04:36:57.554Z,77.53
2018-02-16T04:39:26.595Z,72.22
2018-02-16T04:41:55.599Z,79.35
2018-02-16T04:44:24.743Z,71.53
2018-02-16T04:46:53.827Z,76.15
2018-02-16T04:49:22.835Z,79.93
2018-02-16T04:51:51.875Z,75.07
2018-02-16T04:54:20.887Z,81.65
2018-02-16T04:56:49.947Z,72.20
2018-02-16T04:59:18.958Z,78.70
2018-02-16T05:01:48.042Z,90.93
2018-02-16T05:04:17.070Z,79.07
2018-02-16T05:06:46.115Z,80.97
2018-02-16T05:09:15.150Z,95.60
2018-02-16T05:11:44.987Z,94.65
2018-02-16T05:14:14.767Z,84.28
2018-02-16T05:16:43.826Z,81.45
2018-02-16T05:19:13.607Z,82.30
2018-02-16T05:21:42.674Z,90.85
2018-02-16T05:24:11.691Z,90.45
2018-02-16T05:26:40.751Z,88.25
2018-02-16T05:29:09.821Z,89.85
2018-02-16T05:31:38.878Z,94.62
2018-02-16T05:34:07.914Z,88.62
2018-02-16T05:36:36.959Z,85.38
2018-02-16T05:39:05.989Z,88.68
2018-02-16T05:41:35.063Z,92.88
2018-02-16T05:44:04.083Z,91.80
2018-02-16T05:46:33.177Z,94.03
2018-02-16T05:49:02.943Z,111.45
2018-02-16T05:51:31.991Z,93.95
2018-02-16T05:54:01.058Z,100.40
2018-02-16T05:56:30.097Z,94.18
2018-02-16T05:58:59.870Z,98.55
2018-02-16T06:01:28.962Z,89.43
2018-02-16T06:03:57.970Z,97.03
2018-02-16T06:06:27.049Z,100.28
2018-02-16T06:08:56.059Z,127.30
2018-02-16T06:11:25.883Z,125.55
2018-02-16T06:13:55.682Z,119.15
2018-02-16T06:16:24.695Z,104.57
2018-02-16T06:18:53.714Z,106.87
2018-02-16T06:21:22.718Z,99.07
2018-02-16T06:23:51.754Z,92.53
2018-02-16T06:26:21.547Z,117.95
2018-02-16T06:28:50.598Z,99.95
2018-02-16T06:31:20.404Z,93.03
2018-02-16T06:33:49.451Z,89.07
2018-02-16T06:36:18.463Z,104.35
2018-02-16T06:38:47.475Z,101.82
2018-02-16T06:41:16.523Z,107.55
2018-02-16T06:43:46.302Z,95.18
2018-02-16T06:46:15.366Z,100.15
2018-02-16T06:48:44.454Z,91.28
2018-02-16T06:51:13.513Z,95.68
2018-02-16T06:53:43.519Z,95.30
2018-02-16T06:56:12.595Z,90.65
2018-02-16T06:58:41.600Z,91.95
2018-02-16T07:01:10.655Z,78.90
2018-02-16T07:03:40.471Z,80.30
2018-02-16T07:06:09.530Z,96.05
2018-02-16T07:08:38.550Z,85.90
2018-02-16T07:11:07.636Z,92.70
2018-02-16T07:13:36.636Z,83.12
2018-02-16T07:16:06.394Z,88.78
2018-02-16T07:18:35.947Z,88.35
2018-02-16T07:21:04.968Z,102.78
2018-02-16T07:23:33.977Z,88.07
2018-02-16T07:26:03.014Z,86.18
2018-02-16T07:28:32.060Z,76.18
2018-02-16T07:31:01.074Z,78.07
2018-02-16T07:33:30.166Z,89.18
2018-02-16T07:35:59.171Z,82.05
2018-02-16T07:38:28.220Z,77.05
2018-02-16T07:40:57.251Z,74.22
2018-02-16T07:43:27.063Z,69.70
2018-02-16T07:45:56.103Z,68.37
2018-02-16T07:48:25.162Z,66.22
2018-02-16T07:50:55.683Z,66.75
2018-02-16T07:53:24.783Z,67.30
2018-02-16T07:55:53.822Z,76.95
2018-02-16T07:58:22.823Z,66.82
2018-02-16T08:00:51.878Z,71.62
2018-02-16T08:03:21.650Z,66.62
2018-02-16T08:05:50.724Z,60.03
2018-02-16T08:08:20.499Z,56.65
2018-02-16T08:10:49.621Z,57.75
2018-02-16T08:13:18.632Z,48.67
2018-02-16T08:15:47.662Z,57.15
2018-02-16T08:18:16.720Z,50.17
2018-02-16T08:20:45.736Z,45.15
2018-02-16T08:23:14.744Z,47.50
2018-02-16T08:25:43.774Z,49.20
2018-02-16T08:28:12.786Z,48.70
2018-02-16T08:30:41.862Z,49.58
2018-02-16T08:33:10.870Z,48.30
2018-02-16T08:35:39.887Z,42.85
2018-02-16T08:38:08.907Z,37.22
2018-02-16T08:40:37.915Z,41.40
2018-02-16T08:43:06.951Z,36.03
2018-02-16T08:45:35.976Z,45.45
2018-02-16T08:48:05.831Z,37.90
2018-02-16T08:50:34.866Z,40.45
2018-02-16T08:53:03.931Z,39.15
2018-02-16T08:55:32.939Z,37.40
2018-02-16T08:58:01.975Z,38.13
2018-02-16T09:00:31.014Z,42.08
2018-02-16T09:03:00.055Z,37.45
2018-02-16T09:05:29.843Z,43.22
2018-02-16T09:07:58.964Z,41.70
2018-02-16T09:10:27.982Z,36.20
2018-02-16T09:12:56.990Z,33.88
2018-02-16T09:15:26.043Z,38.35
2018-02-16T09:17:55.068Z,39.20
2018-02-16T09:20:24.113Z,31.35
2018-02-16T09:22:53.174Z,28.42
2018-02-16T09:25:22.191Z,24.48
2018-02-16T09:27:51.473Z,29.33
2018-02-16T09:30:21.338Z,27.37
2018-02-16T09:32:50.342Z,27.55
2018-02-16T09:35:19.392Z,25.98
2018-02-16T09:37:48.735Z,20.37
2018-02-16T09:40:18.690Z,26.02
2018-02-16T09:42:47.704Z,24.20
2018-02-16T09:45:16.713Z,19.00
2018-02-16T09:47:45.745Z,26.17
2018-02-16T09:50:14.804Z,18.52
2018-02-16T09:52:43.859Z,24.55
2018-02-16T09:55:12.903Z,18.67
2018-02-16T09:57:41.915Z,26.12
2018-02-16T10:00:11.726Z,21.25
2018-02-16T10:02:40.735Z,26.60
2018-02-16T10:05:09.823Z,16.87
2018-02-16T10:07:38.840Z,17.62
2018-02-16T10:10:07.851Z,14.25
2018-02-16T10:12:36.894Z,17.45
2018-02-16T10:15:06.690Z,24.02
2018-02-16T10:17:35.723Z,27.60
2018-02-16T10:20:05.543Z,26.58
2018-02-16T10:22:34.635Z,24.42
2018-02-16T10:25:03.719Z,24.00
2018-02-16T10:27:32.723Z,19.35
2018-02-16T10:30:01.785Z,18.02
2018-02-16T10:32:30.818Z,27.55
2018-02-16T10:34:59.834Z,16.70
2018-02-16T10:37:28.849Z,21.50
2018-02-16T10:39:57.923Z,37.40
2018-02-16T10:42:26.915Z,25.25
2018-02-16T10:44:55.947Z,23.48
2018-02-16T10:47:25.719Z,23.02
2018-02-16T10:49:54.750Z,20.02
2018-02-16T10:52:23.754Z,22.80
2018-02-16T10:54:52.819Z,20.83
2018-02-16T10:57:21.830Z,27.23
2018-02-16T10:59:50.905Z,23.75
2018-02-16T11:02:25.584Z,25.10
2018-02-16T11:05:00.081Z,21.42
2018-02-16T11:07:34.848Z,20.52
2018-02-16T11:10:04.639Z,24.40
2018-02-16T11:12:33.643Z,29.60
2018-02-16T11:15:02.722Z,22.73
2018-02-16T11:17:31.723Z,34.45
2018-02-16T11:20:00.774Z,28.48
2018-02-16T11:22:29.783Z,27.70
2018-02-16T11:24:58.790Z,26.30
2018-02-16T11:27:27.803Z,26.80
2018-02-16T11:29:56.810Z,25.20
2018-02-16T11:32:26.824Z,32.20
2018-02-16T11:34:55.913Z,34.88
2018-02-16T11:37:24.939Z,36.78
2018-02-16T11:39:53.947Z,36.33
2018-02-16T11:42:22.961Z,35.20
2018-02-16T11:44:52.002Z,43.53
2018-02-16T11:47:21.790Z,33.60
2018-02-16T11:49:50.854Z,30.50
2018-02-16T11:52:19.871Z,30.15
2018-02-16T11:54:48.931Z,39.90
2018-02-16T11:57:17.942Z,42.85
2018-02-16T11:59:46.985Z,34.15
2018-02-16T12:02:16.759Z,31.08
2018-02-16T12:04:45.799Z,35.08
2018-02-16T12:07:14.816Z,31.17
2018-02-16T12:09:44.710Z,32.13
2018-02-16T12:12:13.762Z,41.97
2018-02-16T12:14:43.550Z,31.00
2018-02-16T12:17:12.553Z,25.52
2018-02-16T12:19:41.735Z,23.85
2018-02-16T12:22:10.746Z,26.55
2018-02-16T12:24:39.810Z,23.90
2018-02-16T12:27:08.823Z,31.23
2018-02-16T12:29:37.915Z,39.90
2018-02-16T12:32:06.923Z,29.75
2018-02-16T12:34:35.966Z,28.58
2018-02-16T12:37:05.743Z,26.02
2018-02-16T12:39:34.810Z,36.70
2018-02-16T12:42:03.838Z,32.50
2018-02-16T12:44:32.878Z,43.13
2018-02-16T12:47:01.891Z,34.50
2018-02-16T12:49:30.967Z,30.37
2018-02-16T12:51:59.970Z,26.85
2018-02-16T12:54:29.010Z,37.10
2018-02-16T12:56:58.023Z,29.23
2018-02-16T12:59:27.099Z,26.45
2018-02-16T13:01:57.006Z,25.65
2018-02-16T13:04:26.794Z,24.52
2018-02-16T13:06:55.866Z,28.95
2018-02-16T13:09:25.147Z,39.60
2018-02-16T13:11:54.921Z,24.52
2018-02-16T13:14:23.982Z,30.45
2018-02-16T13:16:53.779Z,27.58
2018-02-16T13:19:22.794Z,28.00
2018-02-16T13:21:51.814Z,23.17
2018-02-16T13:24:20.828Z,23.50
2018-02-16T13:26:50.694Z,32.90
2018-02-16T13:29:19.742Z,37.22
2018-02-16T13:31:48.788Z,26.58
2018-02-16T13:34:17.766Z,35.80
2018-02-16T13:36:46.810Z,26.67
2018-02-16T13:39:15.818Z,27.20
2018-02-16T13:41:44.825Z,24.77
2018-02-16T13:44:13.831Z,24.08
2018-02-16T13:46:43.598Z,22.95
2018-02-16T13:49:12.612Z,19.87
2018-02-16T13:51:41.620Z,26.48
2018-02-16T13:54:10.642Z,23.70
2018-02-16T13:56:39.642Z,18.08
2018-02-16T13:59:08.702Z,28.42
2018-02-16T14:01:37.715Z,15.20
2018-02-16T14:04:06.799Z,25.17
2018-02-16T14:06:36.606Z,25.48
2018-02-16T14:09:05.639Z,26.67
2018-02-16T14:11:34.688Z,20.30
2018-02-16T14:14:03.708Z,25.48
2018-02-16T14:16:34.573Z,13.55
2018-02-16T14:19:03.578Z,25.40
2018-02-16T14:21:32.650Z,23.67
2018-02-16T14:24:01.749Z,17.25
2018-02-16T14:26:30.719Z,19.45
2018-02-16T14:28:59.751Z,29.73
2018-02-16T14:31:29.534Z,17.10
2018-02-16T14:33:58.555Z,18.08
2018-02-16T14:36:27.554Z,14.60
2018-02-16T14:38:56.623Z,21.77
2018-02-16T14:41:25.636Z,18.42
2018-02-16T14:43:54.671Z,17.00
2018-02-16T14:46:23.680Z,21.17
2018-02-16T14:48:52.774Z,21.70
2018-02-16T14:51:21.774Z,17.65
2018-02-16T14:53:50.869Z,19.50
2018-02-16T14:56:19.835Z,17.67
2018-02-16T14:58:49.081Z,13.60
2018-02-16T15:01:18.854Z,21.40
2018-02-16T15:03:47.879Z,13.45
2018-02-16T15:06:16.882Z,17.85
2018-02-16T15:08:45.915Z,28.77
2018-02-16T15:11:14.942Z,23.33
2018-02-16T15:13:44.730Z,21.58
2018-02-16T15:16:13.827Z,13.18
2018-02-16T15:18:42.846Z,24.12
2018-02-16T15:21:11.846Z,16.12
2018-02-16T15:23:40.916Z,21.73
2018-02-16T15:26:10.684Z,16.27
2018-02-16T15:28:39.738Z,22.20
2018-02-16T15:31:09.517Z,29.63
2018-02-16T15:33:38.578Z,20.37
2018-02-16T15:36:08.351Z,27.70
2018-02-16T15:38:37.386Z,25.10
2018-02-16T15:41:06.390Z,22.40
2018-02-16T15:43:35.465Z,23.40
2018-02-16T15:46:04.458Z,20.45
2018-02-16T15:48:33.490Z,23.30
2018-02-16T15:51:02.561Z,18.87
2018-02-16T15:53:32.334Z,16.52
2018-02-16T15:56:01.379Z,31.85
2018-02-16T15:58:30.392Z,12.55
2018-02-16T16:01:00.167Z,20.20
2018-02-16T16:03:29.185Z,19.40
2018-02-16T16:05:58.243Z,24.02
2018-02-16T16:08:28.103Z,17.87
2018-02-16T16:10:57.155Z,16.85
2018-02-16T16:13:26.199Z,17.90
2018-02-16T16:15:56.031Z,20.67
2018-02-16T16:18:25.035Z,23.58
2018-02-16T16:20:54.047Z,29.37
2018-02-16T16:23:23.058Z,17.50
2018-02-16T16:25:52.063Z,25.25
2018-02-16T16:28:21.866Z,13.07
2018-02-16T16:30:50.874Z,18.60
2018-02-16T16:33:19.928Z,17.17
2018-02-16T16:44:53.021Z,27.33
2018-02-16T16:47:24.572Z,25.37
2018-02-16T16:49:53.646Z,26.75
2018-02-16T16:52:22.675Z,21.83
2018-02-16T16:54:51.679Z,16.80
2018-02-16T16:57:20.706Z,22.25
2018-02-16T16:59:49.731Z,16.60
2018-02-16T18:44:58.941Z,36.05
2018-02-16T18:47:29.009Z,22.75
2018-02-16T18:49:58.841Z,25.12
2018-02-16T18:52:27.913Z,30.83
2018-02-16T18:54:56.990Z,31.30
2018-02-16T18:57:26.076Z,31.17
2018-02-16T18:59:55.472Z,30.33
2018-02-16T19:05:26.610Z,32.47
2018-02-16T19:13:58.445Z,27.70
2018-02-16T19:16:27.541Z,32.17
2018-02-16T19:18:57.393Z,20.48
2018-02-16T19:21:26.506Z,33.17
2018-02-16T19:23:55.578Z,32.50
2018-02-16T19:26:25.414Z,31.20
2018-02-16T19:28:55.382Z,31.52
2018-02-16T19:31:24.458Z,28.52
2018-02-16T19:33:54.357Z,23.45
2018-02-16T19:36:23.613Z,26.48
2018-02-16T19:38:52.722Z,25.20
2018-02-16T19:41:21.793Z,33.08
2018-02-16T19:43:50.860Z,27.00
2018-02-16T19:46:19.925Z,32.00
2018-02-16T19:48:49.757Z,36.15
2018-02-16T19:51:19.594Z,21.83
2018-02-16T19:53:48.665Z,26.15
2018-02-16T19:56:17.733Z,31.62
2018-02-16T19:58:46.810Z,21.08
2018-02-16T20:01:16.685Z,32.92
2018-02-16T20:03:45.750Z,31.75
2018-02-16T20:06:15.581Z,35.00
2018-02-16T20:08:45.420Z,42.70
2018-02-16T20:11:14.540Z,29.40
2018-02-16T20:13:43.720Z,35.00
2018-02-16T20:16:12.789Z,41.45
2018-02-16T20:18:41.941Z,27.73
2018-02-16T20:21:11.104Z,31.15
2018-02-16T20:23:40.182Z,29.05
2018-02-16T20:26:10.019Z,26.27
2018-02-16T20:28:39.096Z,45.90
2018-02-16T20:31:08.165Z,33.28
2018-02-16T20:33:37.265Z,42.08
2018-02-16T20:36:06.401Z,35.78
2018-02-16T20:38:35.576Z,35.42
2018-02-16T20:41:04.641Z,29.10
2018-02-16T20:43:33.721Z,34.90
2018-02-16T20:46:02.868Z,30.55
2018-02-16T20:48:31.948Z,39.00
2018-02-16T20:51:01.049Z,28.42
2018-02-16T20:53:30.200Z,35.83
2018-02-16T20:55:59.289Z,32.38
2018-02-16T20:58:28.370Z,32.78
2018-02-16T21:00:57.445Z,36.03
2018-02-16T21:03:27.281Z,34.47
2018-02-16T21:05:57.217Z,32.75
2018-02-16T21:08:26.285Z,33.50
2018-02-16T21:10:56.145Z,30.40
2018-02-16T21:13:26.017Z,40.95
2018-02-16T21:15:55.085Z,43.17
2018-02-16T21:18:24.918Z,37.97
2018-02-16T21:20:53.992Z,46.47
2018-02-16T21:23:23.397Z,32.33
2018-02-16T21:25:52.469Z,36.30
2018-02-16T21:28:21.549Z,29.27
2018-02-16T21:30:51.389Z,29.30
2018-02-16T21:33:21.226Z,35.95
2018-02-16T21:35:50.293Z,36.72
2018-02-16T21:38:19.360Z,33.58
2018-02-16T21:40:48.449Z,36.92
2018-02-16T21:43:18.285Z,27.75
2018-02-16T21:45:47.354Z,28.33
2018-02-16T21:48:16.467Z,29.85
2018-02-16T21:50:45.532Z,35.22
2018-02-16T21:53:14.693Z,39.28
2018-02-16T21:55:43.761Z,25.67
2018-02-16T21:58:12.858Z,30.60
2018-02-16T22:00:42.028Z,31.55
2018-02-16T22:03:11.130Z,26.92
2018-02-16T22:05:40.206Z,25.15
2018-02-16T22:08:10.057Z,31.12
2018-02-16T22:10:39.165Z,33.42
2018-02-16T22:13:08.233Z,32.38
2018-02-16T22:15:37.314Z,33.88
2018-02-16T22:18:06.409Z,30.42
2018-02-16T22:20:35.478Z,29.98
2018-02-16T22:23:04.622Z,31.87
2018-02-16T22:25:33.693Z,39.40
2018-02-16T22:28:02.777Z,26.58
2018-02-16T22:30:31.854Z,34.47
2018-02-16T22:33:01.001Z,37.47
2018-02-16T22:35:30.123Z,28.35
2018-02-16T22:37:59.342Z,28.15
2018-02-16T22:40:28.421Z,37.38
2018-02-16T22:42:58.267Z,26.83
2018-02-16T22:45:27.342Z,32.33
2018-02-16T22:47:56.427Z,31.62
2018-02-16T22:50:25.525Z,29.83
2018-02-16T22:52:54.631Z,26.85
2018-02-16T22:55:23.718Z,29.08
2018-02-16T22:57:52.801Z,31.15
2018-02-16T23:00:22.677Z,30.10
2018-02-16T23:02:51.756Z,22.05
2018-02-16T23:05:21.594Z,30.45
2018-02-16T23:07:50.705Z,30.45
2018-02-16T23:10:20.641Z,31.77
2018-02-16T23:12:49.717Z,30.08
2018-02-16T23:15:19.556Z,30.92
2018-02-16T23:17:49.394Z,33.95
2018-02-16T23:20:18.502Z,46.35
2018-02-16T23:22:48.394Z,39.22
2018-02-16T23:25:17.474Z,29.20
2018-02-16T23:27:46.546Z,31.25
2018-02-16T23:30:15.634Z,32.30
2018-02-16T23:32:44.713Z,38.78
2018-02-16T23:35:13.793Z,29.05
2018-02-16T23:37:42.934Z,43.97
2018-02-16T23:40:12.014Z,33.08
2018-02-16T23:42:41.047Z,38.92
2018-02-16T23:45:10.206Z,34.45
2018-02-16T23:47:39.308Z,28.30
2018-02-16T23:50:08.453Z,31.05
2018-02-16T23:52:37.662Z,40.10
2018-02-16T23:55:06.737Z,35.47
2018-02-16T23:57:35.936Z,41.33
